createdAt,value
2018-10-11T00:00:57.738Z,14.47
2018-10-11T00:03:26.748Z,8.17
2018-10-11T00:05:55.985Z,11.10
2018-10-11T00:08:25.623Z,14.07
2018-10-11T00:10:54.707Z,7.70
2018-10-11T00:13:23.989Z,11.53
2018-10-11T00:15:53.773Z,6.90
2018-10-11T00:18:22.823Z,9.67
2018-10-11T00:20:52.596Z,11.13
2018-10-11T00:23:22.062Z,5.50
2018-10-11T00:25:51.077Z,12.53
2018-10-11T00:28:27.288Z,15.83
2018-10-11T00:30:56.496Z,12.60
2018-10-11T00:33:25.601Z,8.60
2018-10-11T00:35:55.100Z,13.07
2018-10-11T00:38:24.353Z,13.37
2018-10-11T00:40:53.392Z,11.73
2018-10-11T00:43:22.884Z,12.60
2018-10-11T00:45:51.977Z,10.30
2018-10-11T00:48:21.116Z,6.90
2018-10-11T00:50:51.400Z,7.57
2018-10-11T00:53:20.510Z,14.63
2018-10-11T00:55:49.691Z,11.87
2018-10-11T00:58:19.215Z,412.60
2018-10-11T01:00:48.262Z,24.03
2018-10-11T01:03:17.544Z,11.87
2018-10-11T01:05:46.908Z,13.80
2018-10-11T01:08:16.803Z,15.37
2018-10-11T01:10:46.013Z,16.17
2018-10-11T01:13:16.120Z,12.40
2018-10-11T01:15:45.153Z,13.63
2018-10-11T01:18:14.229Z,15.33
2018-10-11T01:20:43.631Z,6.43
2018-10-11T01:23:12.720Z,5.10
2018-10-11T01:25:42.122Z,11.03
2018-10-11T01:28:11.528Z,7.17
2018-10-11T01:30:44.706Z,10.67
2018-10-11T01:33:14.732Z,5.67
2018-10-11T01:35:43.991Z,9.43
2018-10-11T01:38:13.161Z,7.00
2018-10-11T01:40:42.618Z,9.33
2018-10-11T01:43:11.753Z,6.43
2018-10-11T01:45:40.796Z,10.60
2018-10-11T01:48:10.347Z,8.80
2018-10-11T01:50:39.544Z,8.57
2018-10-11T01:53:08.647Z,11.17
2018-10-11T01:55:38.223Z,9.73
2018-10-11T01:58:07.403Z,9.47
2018-10-11T02:00:36.491Z,10.23
2018-10-11T02:03:05.959Z,10.70
2018-10-11T02:05:35.012Z,8.37
2018-10-11T02:08:04.262Z,13.67
2018-10-11T02:10:33.584Z,10.70
2018-10-11T02:13:03.280Z,7.30
2018-10-11T02:15:32.292Z,7.20
2018-10-11T02:18:01.817Z,6.70
2018-10-11T02:20:30.898Z,7.43
2018-10-11T02:22:59.932Z,12.27
2018-10-11T02:25:29.264Z,21.83
2018-10-11T02:27:58.405Z,7.17
2018-10-11T02:30:27.447Z,10.73
2018-10-11T02:32:56.791Z,10.00
2018-10-11T02:35:25.880Z,8.57
2018-10-11T02:37:54.975Z,11.67
2018-10-11T02:40:24.590Z,13.33
2018-10-11T02:42:53.627Z,13.80
2018-10-11T02:45:22.678Z,14.53
2018-10-11T02:47:52.085Z,10.77
2018-10-11T02:50:21.105Z,10.90
2018-10-11T02:52:50.119Z,16.03
2018-10-11T02:55:24.147Z,12.63
2018-10-11T02:58:04.720Z,28.10
2018-10-11T03:00:35.986Z,31.40
2018-10-11T03:03:10.865Z,30.73
2018-10-11T03:05:42.924Z,25.80
2018-10-11T03:08:13.859Z,19.50
2018-10-11T03:10:43.335Z,28.40
2018-10-11T03:13:13.839Z,84.43
2018-10-11T03:15:43.935Z,11.30
2018-10-11T03:18:13.758Z,16.83
2018-10-11T03:20:45.132Z,12.53
2018-10-11T03:23:14.932Z,10.70
2018-10-11T03:25:45.380Z,76.87
2018-10-11T03:28:15.645Z,54.57
2018-10-11T03:30:45.510Z,22.47
2018-10-11T03:33:15.296Z,21.10
2018-10-11T03:35:45.519Z,17.07
2018-10-11T03:38:14.940Z,22.30
2018-10-11T03:40:44.283Z,33.37
2018-10-11T03:43:13.660Z,31.63
2018-10-11T03:45:42.747Z,36.20
2018-10-11T03:50:34.794Z,117.90
2018-10-11T03:53:03.822Z,28.40
2018-10-11T03:55:32.960Z,26.07
2018-10-11T03:58:02.130Z,30.90
2018-10-11T04:00:31.334Z,26.87
2018-10-11T04:03:00.963Z,28.60
2018-10-11T04:05:30.492Z,1455.40
2018-10-11T04:07:59.652Z,125.80
2018-10-11T04:10:28.851Z,82.03
2018-10-11T04:12:58.415Z,43.90
2018-10-11T04:15:27.783Z,89.50
2018-10-11T04:17:56.940Z,124.93
2018-10-11T04:20:26.389Z,190.67
2018-10-11T04:22:55.487Z,164.53
2018-10-11T04:25:25.144Z,113.30
2018-10-11T04:27:54.312Z,236.90
2018-10-11T04:30:23.405Z,264.10
2018-10-11T04:32:52.636Z,307.03
2018-10-11T04:35:21.896Z,295.27
2018-10-11T04:37:50.997Z,413.80
2018-10-11T04:40:20.061Z,193.17
2018-10-11T04:42:49.576Z,330.47
2018-10-11T04:45:18.679Z,378.47
2018-10-11T04:47:47.816Z,166.47
2018-10-11T04:50:17.343Z,290.37
2018-10-11T04:52:46.583Z,299.00
2018-10-11T04:55:15.689Z,467.57
2018-10-11T04:57:45.172Z,493.07
2018-10-11T05:00:14.227Z,256.13
2018-10-11T05:02:43.440Z,176.73
2018-10-11T05:05:12.791Z,283.63
2018-10-11T05:07:41.881Z,276.63
2018-10-11T05:10:10.999Z,274.37
2018-10-11T05:12:40.563Z,393.73
2018-10-11T05:15:09.744Z,146.00
2018-10-11T05:17:39.004Z,363.70
2018-10-11T05:20:08.656Z,293.40
2018-10-11T05:22:37.796Z,356.37
2018-10-11T05:25:07.069Z,207.33
2018-10-11T05:27:36.558Z,170.53
2018-10-11T05:30:06.057Z,285.60
2018-10-11T05:32:36.297Z,372.73
2018-10-11T05:35:06.047Z,403.00
2018-10-11T05:37:35.202Z,340.17
2018-10-11T05:40:04.418Z,308.23
2018-10-11T05:42:34.640Z,296.87
2018-10-11T05:45:13.138Z,296.70
2018-10-11T05:47:43.650Z,349.47
2018-10-11T05:50:13.253Z,257.07
2018-10-11T05:52:44.221Z,254.30
2018-10-11T05:55:13.838Z,256.90
2018-10-11T05:57:43.693Z,166.77
2018-10-11T06:00:13.561Z,158.20
2018-10-11T06:02:52.602Z,276.60
2018-10-11T06:05:22.166Z,269.17
2018-10-11T06:07:51.405Z,191.20
2018-10-11T06:10:20.707Z,303.10
2018-10-11T06:12:50.271Z,256.17
2018-10-11T06:15:19.434Z,251.07
2018-10-11T06:17:48.765Z,337.40
2018-10-11T06:20:18.262Z,194.07
2018-10-11T06:22:47.920Z,270.97
2018-10-11T06:25:17.942Z,472.57
2018-10-11T06:27:47.387Z,313.70
2018-10-11T06:30:16.613Z,409.90
2018-10-11T06:32:46.065Z,294.93
2018-10-11T06:35:15.654Z,468.83
2018-10-11T06:37:45.654Z,472.43
2018-10-11T06:40:14.867Z,351.60
2018-10-11T06:42:44.870Z,330.57
2018-10-11T06:45:15.721Z,489.10
2018-10-11T06:47:47.073Z,442.67
2018-10-11T06:50:17.229Z,513.10
2018-10-11T06:52:46.361Z,388.07
2018-10-11T06:55:15.954Z,320.87
2018-10-11T06:57:45.157Z,453.50
2018-10-11T07:00:14.495Z,316.83
2018-10-11T07:02:43.998Z,247.10
2018-10-11T07:05:13.274Z,413.00
2018-10-11T07:07:42.483Z,357.23
2018-10-11T07:10:12.160Z,256.10
2018-10-11T07:12:41.399Z,365.57
2018-10-11T07:15:10.521Z,325.10
2018-10-11T07:17:40.370Z,411.90
2018-10-11T07:20:09.782Z,257.37
2018-10-11T07:22:39.071Z,254.33
2018-10-11T07:25:08.308Z,333.13
2018-10-11T07:27:37.629Z,338.70
2018-10-11T07:30:07.474Z,342.03
2018-10-11T07:32:36.715Z,229.60
2018-10-11T07:35:05.927Z,175.97
2018-10-11T07:37:35.333Z,137.73
2018-10-11T07:40:04.896Z,220.63
2018-10-11T07:42:34.093Z,134.30
2018-10-11T07:45:03.262Z,177.90
2018-10-11T07:47:33.018Z,254.63
2018-10-11T07:50:02.151Z,178.93
2018-10-11T07:52:31.999Z,216.07
2018-10-11T07:55:01.655Z,314.87
2018-10-11T07:57:31.419Z,302.20
2018-10-11T08:00:00.816Z,119.70
2018-10-11T08:02:30.526Z,256.83
2018-10-11T08:04:59.646Z,189.53
2018-10-11T08:07:28.900Z,358.60
2018-10-11T08:09:58.429Z,211.30
2018-10-11T08:12:27.812Z,130.57
2018-10-11T08:14:57.093Z,137.10
2018-10-11T08:17:26.915Z,144.13
2018-10-11T08:19:55.867Z,177.80
2018-10-11T08:22:25.626Z,111.50
2018-10-11T08:24:54.803Z,85.00
2018-10-11T08:27:24.552Z,89.60
2018-10-11T08:29:53.757Z,83.00
2018-10-11T08:32:23.418Z,76.17
2018-10-11T08:34:52.561Z,49.10
2018-10-11T08:37:21.925Z,88.80
2018-10-11T08:39:51.096Z,64.80
2018-10-11T08:42:20.821Z,68.83
2018-10-11T08:44:49.963Z,50.80
2018-10-11T08:47:19.466Z,47.23
2018-10-11T08:49:48.584Z,33.33
2018-10-11T08:52:17.717Z,33.13
2018-10-11T08:54:50.454Z,40.47
2018-10-11T08:57:20.481Z,38.73
2018-10-11T08:59:49.767Z,37.20
2018-10-11T09:02:19.417Z,33.50
2018-10-11T09:04:49.584Z,29.87
2018-10-11T09:07:18.765Z,43.97
2018-10-11T09:09:53.561Z,32.27
2018-10-11T09:12:17.487Z,27.43
2018-10-11T09:14:46.790Z,30.83
2018-10-11T09:17:16.533Z,488.07
2018-10-11T09:19:45.902Z,34.67
2018-10-11T09:22:15.013Z,37.37
2018-10-11T09:24:45.525Z,27.63
2018-10-11T09:27:14.822Z,37.87
2018-10-11T09:29:43.937Z,32.40
2018-10-11T09:32:13.104Z,29.40
2018-10-11T09:34:42.239Z,42.87
2018-10-11T09:37:11.353Z,37.93
2018-10-11T09:39:40.505Z,32.57
2018-10-11T09:42:09.714Z,35.47
2018-10-11T09:44:38.823Z,25.43
2018-10-11T09:47:08.807Z,30.70
2018-10-11T09:49:38.766Z,26.10
2018-10-11T09:52:08.063Z,30.80
2018-10-11T09:54:37.764Z,30.33
2018-10-11T09:57:48.258Z,33.33
2018-10-11T10:00:22.839Z,29.87
2018-10-11T10:02:52.466Z,33.73
2018-10-11T10:05:21.777Z,29.57
2018-10-11T10:07:51.005Z,30.13
2018-10-11T10:10:21.281Z,30.27
2018-10-11T10:12:50.857Z,28.20
2018-10-11T10:15:20.474Z,28.57
2018-10-11T10:17:49.606Z,30.93
2018-10-11T10:20:18.729Z,25.80
2018-10-11T10:22:48.260Z,23.37
2018-10-11T10:25:17.465Z,26.40
2018-10-11T10:27:46.774Z,27.03
2018-10-11T10:30:22.114Z,29.93
2018-10-11T10:32:51.295Z,25.23
2018-10-11T10:35:20.587Z,26.60
2018-10-11T10:37:50.770Z,23.90
2018-10-11T10:40:19.881Z,23.73
2018-10-11T10:42:48.981Z,23.20
2018-10-11T10:45:18.530Z,26.70
2018-10-11T10:47:47.661Z,22.60
2018-10-11T10:50:16.781Z,22.77
2018-10-11T10:52:46.309Z,29.60
2018-10-11T10:55:15.513Z,26.30
2018-10-11T10:57:45.027Z,27.03
2018-10-11T11:00:14.618Z,23.53
2018-10-11T11:02:43.793Z,25.70
2018-10-11T11:05:13.070Z,25.50
2018-10-11T11:07:44.269Z,26.77
2018-10-11T11:10:13.482Z,28.43
2018-10-11T11:12:42.601Z,27.57
2018-10-11T11:15:12.058Z,28.80
2018-10-11T11:17:41.712Z,25.10
2018-10-11T11:20:10.805Z,24.63
2018-10-11T11:22:39.961Z,23.63
2018-10-11T11:25:09.227Z,26.77
2018-10-11T11:27:38.397Z,25.53
2018-10-11T11:30:07.785Z,21.70
2018-10-11T11:32:37.049Z,24.47
2018-10-11T11:35:06.177Z,26.47
2018-10-11T11:37:35.605Z,25.77
2018-10-11T11:40:05.206Z,22.90
2018-10-11T11:42:34.366Z,26.47
2018-10-11T11:45:03.861Z,28.17
2018-10-11T11:47:33.194Z,26.47
2018-10-11T11:50:02.333Z,27.03
2018-10-11T11:52:31.865Z,25.10
2018-10-11T11:55:00.981Z,28.97
2018-10-11T11:57:30.221Z,27.17
2018-10-11T11:59:59.864Z,26.07
2018-10-11T12:02:29.166Z,27.97
2018-10-11T12:04:58.341Z,24.93
2018-10-11T12:07:27.562Z,21.97
2018-10-11T12:09:56.773Z,23.93
2018-10-11T12:13:02.710Z,22.77
2018-10-11T12:15:33.500Z,27.40
2018-10-11T12:18:03.979Z,29.43
2018-10-11T12:20:34.384Z,24.30
2018-10-11T12:23:04.940Z,27.70
2018-10-11T12:25:34.383Z,28.20
2018-10-11T12:28:03.582Z,20.87
2018-10-11T12:30:33.434Z,22.03
2018-10-11T12:33:03.463Z,23.63
2018-10-11T12:35:32.838Z,21.20
2018-10-11T12:38:02.011Z,20.13
2018-10-11T12:40:31.193Z,18.00
2018-10-11T12:43:00.506Z,17.47
2018-10-11T12:45:30.066Z,19.30
2018-10-11T12:47:59.281Z,15.70
2018-10-11T12:50:28.415Z,13.90
2018-10-11T12:52:57.997Z,16.67
2018-10-11T12:55:27.209Z,13.03
2018-10-11T12:57:56.461Z,12.87
2018-10-11T13:00:26.250Z,11.83
2018-10-11T13:02:55.780Z,15.20
2018-10-11T13:05:24.805Z,16.70
2018-10-11T13:07:54.329Z,11.57
2018-10-11T13:10:23.810Z,11.20
2018-10-11T13:12:53.015Z,11.40
2018-10-11T13:15:22.702Z,13.83
2018-10-11T13:17:52.718Z,15.20
2018-10-11T13:20:21.851Z,15.20
2018-10-11T13:22:51.434Z,16.50
2018-10-11T13:25:20.522Z,12.80
2018-10-11T13:27:49.776Z,14.10
2018-10-11T13:30:19.141Z,14.63
2018-10-11T13:32:48.318Z,15.17
2018-10-11T13:35:17.520Z,13.80
2018-10-11T13:37:47.107Z,17.33
2018-10-11T13:40:16.423Z,14.67
2018-10-11T13:42:45.528Z,15.53
2018-10-11T13:45:15.211Z,15.13
2018-10-11T13:47:45.459Z,15.60
2018-10-11T13:50:13.925Z,16.77
2018-10-11T13:52:43.220Z,18.87
2018-10-11T13:55:15.046Z,19.07
2018-10-11T13:57:41.864Z,17.23
2018-10-11T14:00:11.422Z,22.60
2018-10-11T14:02:41.102Z,22.17
2018-10-11T14:05:10.376Z,20.83
2018-10-11T14:07:40.425Z,18.97
2018-10-11T14:10:11.785Z,23.20
2018-10-11T14:12:41.331Z,22.23
2018-10-11T14:15:10.529Z,28.67
2018-10-11T14:17:39.698Z,26.47
2018-10-11T14:20:09.306Z,24.73
2018-10-11T14:22:38.536Z,24.60
2018-10-11T14:25:08.282Z,31.63
2018-10-11T14:27:37.417Z,32.83
2018-10-11T14:30:06.637Z,40.60
2018-10-11T14:32:36.459Z,44.20
2018-10-11T14:35:05.874Z,45.77
2018-10-11T14:37:35.679Z,37.23
2018-10-11T14:40:05.953Z,59.93
2018-10-11T14:42:35.390Z,61.60
2018-10-11T14:45:04.550Z,53.77
2018-10-11T14:47:34.265Z,52.70
2018-10-11T14:50:03.797Z,70.90
2018-10-11T14:52:33.329Z,60.90
2018-10-11T14:55:02.929Z,62.47
2018-10-11T14:57:32.238Z,49.83
2018-10-11T15:00:01.728Z,60.20
2018-10-11T15:02:31.033Z,79.70
2018-10-11T15:05:00.212Z,75.13
2018-10-11T15:07:29.377Z,103.70
2018-10-11T15:09:59.161Z,91.60
2018-10-11T15:12:28.397Z,95.33
2018-10-11T15:14:57.521Z,98.67
2018-10-11T15:17:27.407Z,144.03
2018-10-11T15:19:56.622Z,126.23
2018-10-11T15:22:26.424Z,976.77
2018-10-11T15:24:56.117Z,138.70
2018-10-11T15:27:25.303Z,143.10
2018-10-11T15:29:54.625Z,140.73
2018-10-11T15:32:24.124Z,129.93
2018-10-11T15:34:53.718Z,128.10
2018-10-11T15:37:22.933Z,112.20
2018-10-11T15:39:52.121Z,135.23
2018-10-11T15:42:21.349Z,110.40
2018-10-11T15:44:50.541Z,122.73
2018-10-11T15:47:20.238Z,100.17
2018-10-11T15:49:49.391Z,72.60
2018-10-11T15:52:18.656Z,88.37
2018-10-11T15:54:48.234Z,77.50
2018-10-11T15:57:17.373Z,63.87
2018-10-11T15:59:46.498Z,55.40
2018-10-11T16:02:16.026Z,57.20
2018-10-11T16:04:45.134Z,60.20
2018-10-11T16:07:14.350Z,104.43
2018-10-11T16:09:43.517Z,98.53
2018-10-11T16:12:12.642Z,152.67
2018-10-11T16:14:41.924Z,215.30
2018-10-11T16:17:11.555Z,197.10
2018-10-11T16:19:41.219Z,202.60
2018-10-11T16:22:11.033Z,325.70
2018-10-11T16:24:40.803Z,274.00
2018-10-11T16:27:10.800Z,255.60
2018-10-11T16:29:39.915Z,282.20
2018-10-11T16:32:09.916Z,264.20
2018-10-11T16:34:39.154Z,220.07
2018-10-11T16:37:08.377Z,349.77
2018-10-11T16:39:38.042Z,253.83
2018-10-11T16:42:07.210Z,324.33
2018-10-11T16:44:36.450Z,224.83
2018-10-11T16:47:06.380Z,403.50
2018-10-11T16:49:35.814Z,291.93
2018-10-11T16:52:05.030Z,358.20
2018-10-11T16:54:43.652Z,316.47
2018-10-11T16:57:15.141Z,337.07
2018-10-11T16:59:45.086Z,313.50
2018-10-11T17:02:14.536Z,365.43
2018-10-11T17:04:43.677Z,307.67
2018-10-11T17:07:13.310Z,330.53
2018-10-11T17:09:42.530Z,499.60
2018-10-11T17:12:11.805Z,434.13
2018-10-11T17:14:41.397Z,494.07
2018-10-11T17:17:10.675Z,525.53
2018-10-11T17:19:39.801Z,582.00
2018-10-11T17:22:09.985Z,497.50
2018-10-11T17:24:40.104Z,657.13
2018-10-11T17:27:09.265Z,571.03
2018-10-11T17:29:38.465Z,570.30
2018-10-11T17:32:08.131Z,567.70
2018-10-11T17:34:38.021Z,738.23
2018-10-11T17:37:07.673Z,661.67
2018-10-11T17:39:36.990Z,635.77
2018-10-11T17:42:06.228Z,686.97
2018-10-11T17:44:35.383Z,572.87
2018-10-11T17:47:05.267Z,620.07
2018-10-11T17:49:35.122Z,836.77
2018-10-11T17:52:04.286Z,679.27
2018-10-11T17:54:33.652Z,736.80
2018-10-11T17:57:03.293Z,551.80
2018-10-11T17:59:32.534Z,493.80
2018-10-11T18:02:01.698Z,576.90
2018-10-11T18:04:31.115Z,566.47
2018-10-11T18:07:02.080Z,571.33
2018-10-11T18:09:31.685Z,591.30
2018-10-11T18:12:00.822Z,511.43
2018-10-11T18:14:33.367Z,561.17
2018-10-11T18:17:02.767Z,522.87
2018-10-11T18:19:31.929Z,455.73
2018-10-11T18:22:01.610Z,547.30
2018-10-11T18:24:31.572Z,475.57
2018-10-11T18:27:00.745Z,480.40
2018-10-11T18:29:30.945Z,486.93
2018-10-11T18:32:00.185Z,583.70
2018-10-11T18:34:29.345Z,553.70
2018-10-11T18:36:58.963Z,443.10
2018-10-11T18:39:28.189Z,359.37
2018-10-11T18:41:57.345Z,447.80
2018-10-11T18:44:26.681Z,427.77
2018-10-11T18:46:55.842Z,351.83
2018-10-11T18:49:25.082Z,398.40
2018-10-11T18:51:54.393Z,393.87
2018-10-11T18:54:24.633Z,328.77
2018-10-11T18:56:54.025Z,346.83
2018-10-11T18:59:23.294Z,353.10
2018-10-11T19:01:52.474Z,327.30
2018-10-11T19:04:21.721Z,315.30
2018-10-11T19:06:51.302Z,312.57
2018-10-11T19:09:21.187Z,265.30
2018-10-11T19:11:50.477Z,286.77
2018-10-11T19:14:19.629Z,278.87
2018-10-11T19:16:49.660Z,270.70
2018-10-11T19:19:18.842Z,227.90
2018-10-11T19:21:48.454Z,242.53
2018-10-11T19:24:18.600Z,262.67
2018-10-11T19:26:48.652Z,251.70
2018-10-11T19:29:17.830Z,251.63
2018-10-11T19:31:46.966Z,241.80
2018-10-11T19:34:16.134Z,207.83
2018-10-11T19:36:45.453Z,228.43
2018-10-11T19:39:15.628Z,209.07
2018-10-11T19:41:46.230Z,207.67
2018-10-11T19:44:15.418Z,201.97
2018-10-11T19:46:44.598Z,189.33
2018-10-11T19:49:14.124Z,225.40
2018-10-11T19:51:43.257Z,186.07
2018-10-11T19:54:12.473Z,182.13
2018-10-11T19:56:41.730Z,188.27
2018-10-11T19:59:10.935Z,236.90
2018-10-11T20:01:40.090Z,234.73
2018-10-11T20:04:09.304Z,226.13
2018-10-11T20:06:39.302Z,189.37
2018-10-11T20:09:10.006Z,199.57
2018-10-11T20:11:39.361Z,193.53
2018-10-11T20:14:09.406Z,177.50
2018-10-11T20:16:39.320Z,157.47
2018-10-11T20:19:08.652Z,167.10
2018-10-11T20:21:37.920Z,176.37
2018-10-11T20:24:07.164Z,174.80
2018-10-11T20:26:36.381Z,163.83
2018-10-11T20:29:06.814Z,185.67
2018-10-11T20:31:36.401Z,153.53
2018-10-11T20:34:06.496Z,126.93
2018-10-11T20:36:35.635Z,149.50
2018-10-11T20:39:06.634Z,146.23
2018-10-11T20:41:35.830Z,162.73
2018-10-11T20:44:05.068Z,139.27
2018-10-11T20:46:34.274Z,173.03
2018-10-11T20:49:03.543Z,170.03
2018-10-11T20:51:33.051Z,167.53
2018-10-11T20:54:02.179Z,167.80
2018-10-11T20:56:31.433Z,157.10
2018-10-11T20:59:00.663Z,160.93
2018-10-11T21:01:29.957Z,155.10
2018-10-11T21:03:59.365Z,157.10
2018-10-11T21:06:28.486Z,151.67
2018-10-11T21:08:58.541Z,152.67
2018-10-11T21:11:27.722Z,155.20
2018-10-11T21:13:57.617Z,136.53
2018-10-11T21:16:26.889Z,141.77
2018-10-11T21:18:56.037Z,126.63
2018-10-11T21:21:25.181Z,128.93
2018-10-11T21:23:54.346Z,136.37
2018-10-11T21:26:23.946Z,139.97
2018-10-11T21:28:53.171Z,136.77
2018-10-11T21:31:23.493Z,135.30
2018-10-11T21:33:53.420Z,137.30
2018-10-11T21:36:22.557Z,121.60
2018-10-11T21:38:52.273Z,118.43
2018-10-11T21:41:22.198Z,134.97
2018-10-11T21:43:51.429Z,138.80
2018-10-11T21:46:20.740Z,137.23
2018-10-11T21:48:50.198Z,133.70
2018-10-11T21:51:19.505Z,125.53
2018-10-11T21:53:48.701Z,147.60
2018-10-11T21:56:18.041Z,160.77
2018-10-11T21:58:47.302Z,168.03
2018-10-11T22:01:20.591Z,162.20
2018-10-11T22:03:49.731Z,163.80
2018-10-11T22:06:19.053Z,141.47
2018-10-11T22:08:48.741Z,145.63
2018-10-11T22:11:18.064Z,128.87
2018-10-11T22:13:47.308Z,137.50
2018-10-11T22:16:17.546Z,147.17
2018-10-11T22:18:47.356Z,116.27
2018-10-11T22:21:16.531Z,99.73
2018-10-11T22:23:45.825Z,113.07
2018-10-11T22:26:14.977Z,137.63
2018-10-11T22:28:44.117Z,125.37
2018-10-11T22:31:14.263Z,102.87
2018-10-11T22:33:43.828Z,108.23
2018-10-11T22:36:13.517Z,114.77
2018-10-11T22:38:43.261Z,100.33
2018-10-11T22:41:12.916Z,112.60
2018-10-11T22:43:42.826Z,118.13
2018-10-11T22:46:13.063Z,116.30
2018-10-11T22:48:42.885Z,121.83
2018-10-11T22:51:12.817Z,114.07
2018-10-11T22:53:42.849Z,115.83
2018-10-11T22:56:12.134Z,98.50
2018-10-11T22:58:41.478Z,115.70
2018-10-11T23:01:10.952Z,108.00
2018-10-11T23:03:40.109Z,118.63
2018-10-11T23:06:09.465Z,105.53
2018-10-11T23:08:39.058Z,105.50
2018-10-11T23:11:08.598Z,107.53
2018-10-11T23:13:38.458Z,103.87
2018-10-11T23:16:08.394Z,91.03
2018-10-11T23:18:37.513Z,97.23
2018-10-11T23:21:06.711Z,90.83
2018-10-11T23:23:36.343Z,73.03
2018-10-11T23:26:06.043Z,87.07
2018-10-11T23:28:35.416Z,89.97
2018-10-11T23:31:05.005Z,92.43
2018-10-11T23:33:34.131Z,95.90
2018-10-11T23:36:03.268Z,85.83
2018-10-11T23:38:32.739Z,73.73
2018-10-11T23:41:01.946Z,73.83
2018-10-11T23:43:31.103Z,83.90
2018-10-11T23:46:00.694Z,75.83
2018-10-11T23:48:30.521Z,69.90
2018-10-11T23:50:59.638Z,62.97
2018-10-11T23:53:29.131Z,68.33
2018-10-11T23:55:58.266Z,62.27
2018-10-11T23:58:27.433Z,66.93
